sensor_id;sensor_type;location;lat;lon;timestamp;pressure;altitude;pressure_sealevel;temperature
24639;BMP180;1641;51.306;12.384;2024-02-21T00:01:53;100783.00;;;10.60
24639;BMP180;1641;51.306;12.384;2024-02-21T00:04:18;100795.00;;;10.60
24639;BMP180;1641;51.306;12.384;2024-02-21T00:06:43;100788.00;;;10.70
24639;BMP180;1641;51.306;12.384;2024-02-21T00:09:09;100784.00;;;10.80
24639;BMP180;1641;51.306;12.384;2024-02-21T00:11:34;100782.00;;;10.80
24639;BMP180;1641;51.306;12.384;2024-02-21T00:14:00;100776.00;;;10.70
24639;BMP180;1641;51.306;12.384;2024-02-21T00:16:25;100771.00;;;10.80
24639;BMP180;1641;51.306;12.384;2024-02-21T00:18:50;100766.00;;;10.60
24639;BMP180;1641;51.306;12.384;2024-02-21T00:21:28;100765.00;;;10.60
24639;BMP180;1641;51.306;12.384;2024-02-21T00:23:53;100765.00;;;10.50
24639;BMP180;1641;51.306;12.384;2024-02-21T00:26:25;100761.00;;;10.60
24639;BMP180;1641;51.306;12.384;2024-02-21T00:28:54;100760.00;;;10.50
24639;BMP180;1641;51.306;12.384;2024-02-21T00:31:19;100753.00;;;10.70
24639;BMP180;1641;51.306;12.384;2024-02-21T00:33:44;100748.00;;;10.60
24639;BMP180;1641;51.306;12.384;2024-02-21T00:36:10;100753.00;;;10.50
24639;BMP180;1641;51.306;12.384;2024-02-21T00:38:35;100745.00;;;10.40
24639;BMP180;1641;51.306;12.384;2024-02-21T00:41:00;100751.00;;;10.50
24639;BMP180;1641;51.306;12.384;2024-02-21T00:43:25;100746.00;;;10.80
24639;BMP180;1641;51.306;12.384;2024-02-21T00:45:51;100745.00;;;10.80
24639;BMP180;1641;51.306;12.384;2024-02-21T00:48:16;100713.00;;;10.60
24639;BMP180;1641;51.306;12.384;2024-02-21T00:50:41;100724.00;;;10.40
24639;BMP180;1641;51.306;12.384;2024-02-21T00:53:07;100708.00;;;10.50
24639;BMP180;1641;51.306;12.384;2024-02-21T00:55:32;100732.00;;;10.40
24639;BMP180;1641;51.306;12.384;2024-02-21T00:57:57;100688.00;;;10.50
24639;BMP180;1641;51.306;12.384;2024-02-21T01:00:23;100727.00;;;10.30
24639;BMP180;1641;51.306;12.384;2024-02-21T01:02:48;100727.00;;;10.40
24639;BMP180;1641;51.306;12.384;2024-02-21T01:05:16;100720.00;;;10.60
24639;BMP180;1641;51.306;12.384;2024-02-21T01:07:41;100728.00;;;10.70
24639;BMP180;1641;51.306;12.384;2024-02-21T01:10:07;100714.00;;;10.60
24639;BMP180;1641;51.306;12.384;2024-02-21T01:12:32;100708.00;;;10.40
24639;BMP180;1641;51.306;12.384;2024-02-21T01:14:58;100701.00;;;10.30
24639;BMP180;1641;51.306;12.384;2024-02-21T01:17:23;100703.00;;;10.40
24639;BMP180;1641;51.306;12.384;2024-02-21T01:19:48;100699.00;;;10.40
24639;BMP180;1641;51.306;12.384;2024-02-21T01:22:13;100700.00;;;10.40
24639;BMP180;1641;51.306;12.384;2024-02-21T01:24:39;100705.00;;;10.50
24639;BMP180;1641;51.306;12.384;2024-02-21T01:27:05;100685.00;;;10.30
24639;BMP180;1641;51.306;12.384;2024-02-21T01:29:30;100673.00;;;10.30
24639;BMP180;1641;51.306;12.384;2024-02-21T01:31:55;100696.00;;;10.20
24639;BMP180;1641;51.306;12.384;2024-02-21T01:34:21;100695.00;;;10.30
24639;BMP180;1641;51.306;12.384;2024-02-21T01:36:46;100690.00;;;10.40
24639;BMP180;1641;51.306;12.384;2024-02-21T01:39:11;100680.00;;;10.30
24639;BMP180;1641;51.306;12.384;2024-02-21T01:41:36;100669.00;;;10.30
24639;BMP180;1641;51.306;12.384;2024-02-21T01:44:02;100680.00;;;10.30
24639;BMP180;1641;51.306;12.384;2024-02-21T01:46:27;100675.00;;;10.50
24639;BMP180;1641;51.306;12.384;2024-02-21T01:48:55;100656.00;;;10.70
24639;BMP180;1641;51.306;12.384;2024-02-21T01:51:20;100661.00;;;10.60
24639;BMP180;1641;51.306;12.384;2024-02-21T01:53:46;100662.00;;;10.50
24639;BMP180;1641;51.306;12.384;2024-02-21T01:56:12;100654.00;;;10.30
24639;BMP180;1641;51.306;12.384;2024-02-21T01:58:39;100663.00;;;10.10
24639;BMP180;1641;51.306;12.384;2024-02-21T02:01:06;100668.00;;;10.20
24639;BMP180;1641;51.306;12.384;2024-02-21T02:03:31;100667.00;;;10.40
24639;BMP180;1641;51.306;12.384;2024-02-21T02:05:56;100656.00;;;10.50
24639;BMP180;1641;51.306;12.384;2024-02-21T02:08:21;100650.00;;;10.30
24639;BMP180;1641;51.306;12.384;2024-02-21T02:10:48;100652.00;;;10.50
24639;BMP180;1641;51.306;12.384;2024-02-21T02:13:13;100645.00;;;10.30
24639;BMP180;1641;51.306;12.384;2024-02-21T02:15:45;100647.00;;;10.40
24639;BMP180;1641;51.306;12.384;2024-02-21T02:18:11;100648.00;;;10.50
24639;BMP180;1641;51.306;12.384;2024-02-21T02:20:37;100638.00;;;10.50
24639;BMP180;1641;51.306;12.384;2024-02-21T02:23:07;100637.00;;;10.30
24639;BMP180;1641;51.306;12.384;2024-02-21T02:25:34;100611.00;;;10.20
24639;BMP180;1641;51.306;12.384;2024-02-21T02:27:59;100625.00;;;10.30
24639;BMP180;1641;51.306;12.384;2024-02-21T02:30:24;100629.00;;;10.40
24639;BMP180;1641;51.306;12.384;2024-02-21T02:32:50;100626.00;;;10.50
24639;BMP180;1641;51.306;12.384;2024-02-21T02:35:15;100622.00;;;10.50
24639;BMP180;1641;51.306;12.384;2024-02-21T02:37:47;100615.00;;;10.30
24639;BMP180;1641;51.306;12.384;2024-02-21T02:40:13;100600.00;;;10.70
24639;BMP180;1641;51.306;12.384;2024-02-21T02:42:38;100617.00;;;10.80
24639;BMP180;1641;51.306;12.384;2024-02-21T02:45:03;100604.00;;;10.40
24639;BMP180;1641;51.306;12.384;2024-02-21T02:47:29;100607.00;;;10.30
24639;BMP180;1641;51.306;12.384;2024-02-21T02:49:54;100601.00;;;10.30
24639;BMP180;1641;51.306;12.384;2024-02-21T02:52:19;100599.00;;;10.10
24639;BMP180;1641;51.306;12.384;2024-02-21T02:54:48;100604.00;;;10.40
24639;BMP180;1641;51.306;12.384;2024-02-21T02:57:17;100608.00;;;10.40
24639;BMP180;1641;51.306;12.384;2024-02-21T02:59:47;100602.00;;;10.50
24639;BMP180;1641;51.306;12.384;2024-02-21T03:02:13;100602.00;;;10.30
24639;BMP180;1641;51.306;12.384;2024-02-21T03:04:39;100595.00;;;10.10
24639;BMP180;1641;51.306;12.384;2024-02-21T03:07:07;100566.00;;;10.40
24639;BMP180;1641;51.306;12.384;2024-02-21T03:09:32;100587.00;;;10.50
24639;BMP180;1641;51.306;12.384;2024-02-21T03:11:58;100580.00;;;10.40
24639;BMP180;1641;51.306;12.384;2024-02-21T03:14:28;100595.00;;;10.30
24639;BMP180;1641;51.306;12.384;2024-02-21T03:16:53;100594.00;;;10.50
24639;BMP180;1641;51.306;12.384;2024-02-21T03:19:18;100590.00;;;10.40
24639;BMP180;1641;51.306;12.384;2024-02-21T03:21:47;100542.00;;;10.50
24639;BMP180;1641;51.306;12.384;2024-02-21T03:24:12;100588.00;;;10.50
24639;BMP180;1641;51.306;12.384;2024-02-21T03:26:40;100601.00;;;10.50
24639;BMP180;1641;51.306;12.384;2024-02-21T03:29:09;100593.00;;;10.50
24639;BMP180;1641;51.306;12.384;2024-02-21T03:31:37;100592.00;;;10.60
24639;BMP180;1641;51.306;12.384;2024-02-21T03:34:03;100554.00;;;10.40
24639;BMP180;1641;51.306;12.384;2024-02-21T03:36:28;100578.00;;;10.40
24639;BMP180;1641;51.306;12.384;2024-02-21T03:38:54;100582.00;;;10.70
24639;BMP180;1641;51.306;12.384;2024-02-21T03:41:20;100596.00;;;10.40
24639;BMP180;1641;51.306;12.384;2024-02-21T03:43:45;100591.00;;;10.50
24639;BMP180;1641;51.306;12.384;2024-02-21T03:46:10;100589.00;;;10.80
24639;BMP180;1641;51.306;12.384;2024-02-21T03:48:36;100582.00;;;10.70
24639;BMP180;1641;51.306;12.384;2024-02-21T03:51:01;100583.00;;;10.40
24639;BMP180;1641;51.306;12.384;2024-02-21T03:53:27;100587.00;;;10.50
24639;BMP180;1641;51.306;12.384;2024-02-21T03:55:54;100594.00;;;10.90
24639;BMP180;1641;51.306;12.384;2024-02-21T03:58:20;100591.00;;;10.70
24639;BMP180;1641;51.306;12.384;2024-02-21T04:00:46;100598.00;;;10.50
24639;BMP180;1641;51.306;12.384;2024-02-21T04:03:11;100594.00;;;10.60
24639;BMP180;1641;51.306;12.384;2024-02-21T04:05:36;100597.00;;;10.80
24639;BMP180;1641;51.306;12.384;2024-02-21T04:08:05;100599.00;;;10.80
24639;BMP180;1641;51.306;12.384;2024-02-21T04:10:31;100597.00;;;10.60
24639;BMP180;1641;51.306;12.384;2024-02-21T04:12:56;100593.00;;;10.50
24639;BMP180;1641;51.306;12.384;2024-02-21T04:15:21;100593.00;;;10.60
24639;BMP180;1641;51.306;12.384;2024-02-21T04:17:46;100590.00;;;10.10
24639;BMP180;1641;51.306;12.384;2024-02-21T04:20:16;100577.00;;;10.30
24639;BMP180;1641;51.306;12.384;2024-02-21T04:22:45;100588.00;;;10.30
24639;BMP180;1641;51.306;12.384;2024-02-21T04:25:11;100583.00;;;10.30
24639;BMP180;1641;51.306;12.384;2024-02-21T04:27:37;100579.00;;;10.10
24639;BMP180;1641;51.306;12.384;2024-02-21T04:30:06;100573.00;;;10.30
24639;BMP180;1641;51.306;12.384;2024-02-21T04:32:32;100554.00;;;10.30
24639;BMP180;1641;51.306;12.384;2024-02-21T04:34:58;100557.00;;;10.10
24639;BMP180;1641;51.306;12.384;2024-02-21T04:37:23;100558.00;;;10.30
24639;BMP180;1641;51.306;12.384;2024-02-21T04:39:49;100549.00;;;10.20
24639;BMP180;1641;51.306;12.384;2024-02-21T04:42:15;100552.00;;;10.30
24639;BMP180;1641;51.306;12.384;2024-02-21T04:44:40;100525.00;;;10.20
24639;BMP180;1641;51.306;12.384;2024-02-21T04:47:06;100537.00;;;9.90
24639;BMP180;1641;51.306;12.384;2024-02-21T04:49:31;100556.00;;;10.30
24639;BMP180;1641;51.306;12.384;2024-02-21T04:51:59;100552.00;;;10.20
24639;BMP180;1641;51.306;12.384;2024-02-21T04:54:24;100544.00;;;10.30
24639;BMP180;1641;51.306;12.384;2024-02-21T04:56:50;100529.00;;;10.10
24639;BMP180;1641;51.306;12.384;2024-02-21T04:59:16;100538.00;;;10.00
24639;BMP180;1641;51.306;12.384;2024-02-21T05:01:41;100529.00;;;10.00
24639;BMP180;1641;51.306;12.384;2024-02-21T05:04:06;100525.00;;;10.10
24639;BMP180;1641;51.306;12.384;2024-02-21T05:06:31;100530.00;;;10.10
24639;BMP180;1641;51.306;12.384;2024-02-21T05:08:57;100495.00;;;10.40
24639;BMP180;1641;51.306;12.384;2024-02-21T05:11:23;100506.00;;;10.30
24639;BMP180;1641;51.306;12.384;2024-02-21T05:13:48;100502.00;;;10.30
24639;BMP180;1641;51.306;12.384;2024-02-21T05:16:13;100505.00;;;10.40
24639;BMP180;1641;51.306;12.384;2024-02-21T05:18:40;100507.00;;;10.60
24639;BMP180;1641;51.306;12.384;2024-02-21T05:21:05;100485.00;;;10.70
24639;BMP180;1641;51.306;12.384;2024-02-21T05:23:30;100482.00;;;10.70
24639;BMP180;1641;51.306;12.384;2024-02-21T05:25:56;100488.00;;;10.40
24639;BMP180;1641;51.306;12.384;2024-02-21T05:28:21;100493.00;;;10.40
24639;BMP180;1641;51.306;12.384;2024-02-21T05:30:46;100483.00;;;10.50
24639;BMP180;1641;51.306;12.384;2024-02-21T05:33:11;100482.00;;;10.60
24639;BMP180;1641;51.306;12.384;2024-02-21T05:35:37;100469.00;;;10.40
24639;BMP180;1641;51.306;12.384;2024-02-21T05:38:03;100476.00;;;10.20
24639;BMP180;1641;51.306;12.384;2024-02-21T05:40:36;100479.00;;;10.20
24639;BMP180;1641;51.306;12.384;2024-02-21T05:43:01;100452.00;;;10.10
24639;BMP180;1641;51.306;12.384;2024-02-21T05:45:27;100467.00;;;10.40
24639;BMP180;1641;51.306;12.384;2024-02-21T05:47:52;100435.00;;;10.50
24639;BMP180;1641;51.306;12.384;2024-02-21T05:50:17;100452.00;;;10.30
24639;BMP180;1641;51.306;12.384;2024-02-21T05:52:42;100477.00;;;10.30
24639;BMP180;1641;51.306;12.384;2024-02-21T05:55:08;100476.00;;;10.20
24639;BMP180;1641;51.306;12.384;2024-02-21T05:57:34;100461.00;;;10.60
24639;BMP180;1641;51.306;12.384;2024-02-21T05:59:59;100474.00;;;10.40
24639;BMP180;1641;51.306;12.384;2024-02-21T06:02:25;100474.00;;;10.20
24639;BMP180;1641;51.306;12.384;2024-02-21T06:04:50;100436.00;;;10.40
24639;BMP180;1641;51.306;12.384;2024-02-21T06:07:15;100453.00;;;10.20
24639;BMP180;1641;51.306;12.384;2024-02-21T06:09:40;100445.00;;;10.20
24639;BMP180;1641;51.306;12.384;2024-02-21T06:12:06;100441.00;;;10.50
24639;BMP180;1641;51.306;12.384;2024-02-21T06:14:31;100440.00;;;10.00
24639;BMP180;1641;51.306;12.384;2024-02-21T06:16:56;100450.00;;;9.90
24639;BMP180;1641;51.306;12.384;2024-02-21T06:19:22;100449.00;;;10.00
24639;BMP180;1641;51.306;12.384;2024-02-21T06:21:49;100440.00;;;9.70
24639;BMP180;1641;51.306;12.384;2024-02-21T06:24:14;100442.00;;;9.90
24639;BMP180;1641;51.306;12.384;2024-02-21T06:26:40;100405.00;;;9.60
24639;BMP180;1641;51.306;12.384;2024-02-21T06:29:06;100440.00;;;9.50
24639;BMP180;1641;51.306;12.384;2024-02-21T06:31:31;100448.00;;;9.70
24639;BMP180;1641;51.306;12.384;2024-02-21T06:33:57;100461.00;;;9.80
24639;BMP180;1641;51.306;12.384;2024-02-21T06:36:22;100468.00;;;10.00
24639;BMP180;1641;51.306;12.384;2024-02-21T06:38:47;100468.00;;;10.00
24639;BMP180;1641;51.306;12.384;2024-02-21T06:41:16;100449.00;;;10.00
24639;BMP180;1641;51.306;12.384;2024-02-21T06:43:43;100465.00;;;10.20
24639;BMP180;1641;51.306;12.384;2024-02-21T06:46:08;100413.00;;;10.30
24639;BMP180;1641;51.306;12.384;2024-02-21T06:48:33;100480.00;;;10.50
24639;BMP180;1641;51.306;12.384;2024-02-21T06:50:59;100481.00;;;10.40
24639;BMP180;1641;51.306;12.384;2024-02-21T06:53:24;100493.00;;;10.40
24639;BMP180;1641;51.306;12.384;2024-02-21T06:55:49;100455.00;;;10.40
24639;BMP180;1641;51.306;12.384;2024-02-21T06:58:14;100510.00;;;10.30
24639;BMP180;1641;51.306;12.384;2024-02-21T07:00:42;100516.00;;;10.20
24639;BMP180;1641;51.306;12.384;2024-02-21T07:03:07;100509.00;;;10.50
24639;BMP180;1641;51.306;12.384;2024-02-21T07:05:33;100512.00;;;10.50
24639;BMP180;1641;51.306;12.384;2024-02-21T07:07:58;100499.00;;;10.30
24639;BMP180;1641;51.306;12.384;2024-02-21T07:10:23;100508.00;;;10.10
24639;BMP180;1641;51.306;12.384;2024-02-21T07:12:48;100523.00;;;10.20
24639;BMP180;1641;51.306;12.384;2024-02-21T07:15:14;100472.00;;;10.20
24639;BMP180;1641;51.306;12.384;2024-02-21T07:17:39;100457.00;;;10.50
24639;BMP180;1641;51.306;12.384;2024-02-21T07:20:05;100509.00;;;10.40
24639;BMP180;1641;51.306;12.384;2024-02-21T07:22:30;100488.00;;;10.30
24639;BMP180;1641;51.306;12.384;2024-02-21T07:24:56;100500.00;;;10.30
24639;BMP180;1641;51.306;12.384;2024-02-21T07:27:21;100466.00;;;10.40
24639;BMP180;1641;51.306;12.384;2024-02-21T07:29:54;100525.00;;;10.60
24639;BMP180;1641;51.306;12.384;2024-02-21T07:32:19;100481.00;;;10.50
24639;BMP180;1641;51.306;12.384;2024-02-21T07:34:44;100517.00;;;10.60
24639;BMP180;1641;51.306;12.384;2024-02-21T07:37:10;100484.00;;;10.40
24639;BMP180;1641;51.306;12.384;2024-02-21T07:39:36;100518.00;;;10.50
24639;BMP180;1641;51.306;12.384;2024-02-21T07:42:02;100483.00;;;10.50
24639;BMP180;1641;51.306;12.384;2024-02-21T07:44:27;100517.00;;;10.70
24639;BMP180;1641;51.306;12.384;2024-02-21T07:46:53;100522.00;;;10.80
24639;BMP180;1641;51.306;12.384;2024-02-21T07:49:18;100515.00;;;10.50
24639;BMP180;1641;51.306;12.384;2024-02-21T07:51:43;100515.00;;;10.40
24639;BMP180;1641;51.306;12.384;2024-02-21T07:54:08;100497.00;;;10.30
24639;BMP180;1641;51.306;12.384;2024-02-21T07:56:34;100457.00;;;10.60
24639;BMP180;1641;51.306;12.384;2024-02-21T07:58:59;100479.00;;;10.50
24639;BMP180;1641;51.306;12.384;2024-02-21T08:01:24;100448.00;;;10.50
24639;BMP180;1641;51.306;12.384;2024-02-21T08:03:49;100434.00;;;10.60
24639;BMP180;1641;51.306;12.384;2024-02-21T08:06:15;100469.00;;;10.40
24639;BMP180;1641;51.306;12.384;2024-02-21T08:08:40;100443.00;;;10.40
24639;BMP180;1641;51.306;12.384;2024-02-21T08:11:05;100461.00;;;10.20
24639;BMP180;1641;51.306;12.384;2024-02-21T08:13:31;100409.00;;;10.40
24639;BMP180;1641;51.306;12.384;2024-02-21T08:15:56;100407.00;;;10.30
24639;BMP180;1641;51.306;12.384;2024-02-21T08:18:22;100448.00;;;10.60
24639;BMP180;1641;51.306;12.384;2024-02-21T08:20:48;100444.00;;;10.70
24639;BMP180;1641;51.306;12.384;2024-02-21T08:23:15;100395.00;;;10.80
24639;BMP180;1641;51.306;12.384;2024-02-21T08:25:41;100463.00;;;10.60
24639;BMP180;1641;51.306;12.384;2024-02-21T08:28:06;100420.00;;;10.70
24639;BMP180;1641;51.306;12.384;2024-02-21T08:30:32;100472.00;;;10.80
24639;BMP180;1641;51.306;12.384;2024-02-21T08:32:57;100464.00;;;11.10
24639;BMP180;1641;51.306;12.384;2024-02-21T08:35:23;100451.00;;;10.70
24639;BMP180;1641;51.306;12.384;2024-02-21T08:37:48;100467.00;;;10.80
24639;BMP180;1641;51.306;12.384;2024-02-21T08:40:14;100467.00;;;10.90
24639;BMP180;1641;51.306;12.384;2024-02-21T08:42:43;100458.00;;;11.00
24639;BMP180;1641;51.306;12.384;2024-02-21T08:45:08;100459.00;;;11.10
24639;BMP180;1641;51.306;12.384;2024-02-21T08:47:34;100461.00;;;11.30
24639;BMP180;1641;51.306;12.384;2024-02-21T08:50:01;100463.00;;;10.90
24639;BMP180;1641;51.306;12.384;2024-02-21T08:52:26;100429.00;;;10.90
24639;BMP180;1641;51.306;12.384;2024-02-21T08:54:51;100467.00;;;10.80
24639;BMP180;1641;51.306;12.384;2024-02-21T08:57:18;100463.00;;;10.90
24639;BMP180;1641;51.306;12.384;2024-02-21T08:59:44;100458.00;;;10.40
24639;BMP180;1641;51.306;12.384;2024-02-21T09:02:09;100452.00;;;10.40
24639;BMP180;1641;51.306;12.384;2024-02-21T09:04:34;100457.00;;;10.50
24639;BMP180;1641;51.306;12.384;2024-02-21T09:06:59;100460.00;;;10.80
24639;BMP180;1641;51.306;12.384;2024-02-21T09:09:25;100438.00;;;10.70
24639;BMP180;1641;51.306;12.384;2024-02-21T09:11:50;100450.00;;;10.80
24639;BMP180;1641;51.306;12.384;2024-02-21T09:14:15;100445.00;;;10.50
24639;BMP180;1641;51.306;12.384;2024-02-21T09:16:40;100453.00;;;10.90
24639;BMP180;1641;51.306;12.384;2024-02-21T09:19:06;100433.00;;;11.00
24639;BMP180;1641;51.306;12.384;2024-02-21T09:21:32;100455.00;;;11.00
24639;BMP180;1641;51.306;12.384;2024-02-21T09:23:57;100457.00;;;11.00
24639;BMP180;1641;51.306;12.384;2024-02-21T09:26:22;100438.00;;;11.10
24639;BMP180;1641;51.306;12.384;2024-02-21T09:28:47;100455.00;;;10.90
24639;BMP180;1641;51.306;12.384;2024-02-21T09:31:13;100406.00;;;10.60
24639;BMP180;1641;51.306;12.384;2024-02-21T09:33:38;100451.00;;;10.80
24639;BMP180;1641;51.306;12.384;2024-02-21T09:36:04;100461.00;;;11.30
24639;BMP180;1641;51.306;12.384;2024-02-21T09:38:31;100466.00;;;11.10
24639;BMP180;1641;51.306;12.384;2024-02-21T09:40:59;100455.00;;;11.20
24639;BMP180;1641;51.306;12.384;2024-02-21T09:43:26;100454.00;;;10.50
24639;BMP180;1641;51.306;12.384;2024-02-21T09:45:54;100453.00;;;10.30
24639;BMP180;1641;51.306;12.384;2024-02-21T09:48:37;100456.00;;;10.70
24639;BMP180;1641;51.306;12.384;2024-02-21T09:51:04;100467.00;;;11.10
24639;BMP180;1641;51.306;12.384;2024-02-21T09:53:32;100437.00;;;11.10
24639;BMP180;1641;51.306;12.384;2024-02-21T09:55:58;100419.00;;;10.70
24639;BMP180;1641;51.306;12.384;2024-02-21T09:58:25;100456.00;;;11.40
24639;BMP180;1641;51.306;12.384;2024-02-21T10:00:52;100423.00;;;11.40
24639;BMP180;1641;51.306;12.384;2024-02-21T10:03:17;100436.00;;;11.60
24639;BMP180;1641;51.306;12.384;2024-02-21T10:05:47;100427.00;;;11.20
24639;BMP180;1641;51.306;12.384;2024-02-21T10:08:14;100426.00;;;11.20
24639;BMP180;1641;51.306;12.384;2024-02-21T10:10:46;100437.00;;;11.00
24639;BMP180;1641;51.306;12.384;2024-02-21T10:13:28;100426.00;;;11.30
24639;BMP180;1641;51.306;12.384;2024-02-21T10:16:20;100440.00;;;11.70
24639;BMP180;1641;51.306;12.384;2024-02-21T10:18:54;100410.00;;;11.60
24639;BMP180;1641;51.306;12.384;2024-02-21T10:21:19;100413.00;;;11.80
24639;BMP180;1641;51.306;12.384;2024-02-21T10:23:47;100429.00;;;11.30
24639;BMP180;1641;51.306;12.384;2024-02-21T10:26:22;100438.00;;;11.50
24639;BMP180;1641;51.306;12.384;2024-02-21T10:28:47;100433.00;;;11.90
24639;BMP180;1641;51.306;12.384;2024-02-21T10:31:25;100376.00;;;11.70
24639;BMP180;1641;51.306;12.384;2024-02-21T10:34:00;100416.00;;;11.60
24639;BMP180;1641;51.306;12.384;2024-02-21T10:36:31;100415.00;;;11.90
24639;BMP180;1641;51.306;12.384;2024-02-21T10:38:57;100374.00;;;12.20
24639;BMP180;1641;51.306;12.384;2024-02-21T10:41:23;100395.00;;;12.00
24639;BMP180;1641;51.306;12.384;2024-02-21T10:43:54;100350.00;;;12.20
24639;BMP180;1641;51.306;12.384;2024-02-21T10:46:23;100415.00;;;12.20
24639;BMP180;1641;51.306;12.384;2024-02-21T10:49:07;100401.00;;;12.20
24639;BMP180;1641;51.306;12.384;2024-02-21T10:51:34;100412.00;;;12.10
24639;BMP180;1641;51.306;12.384;2024-02-21T10:54:58;100415.00;;;12.10
24639;BMP180;1641;51.306;12.384;2024-02-21T10:57:23;100408.00;;;12.00
24639;BMP180;1641;51.306;12.384;2024-02-21T10:59:50;100365.00;;;11.90
24639;BMP180;1641;51.306;12.384;2024-02-21T11:02:15;100348.00;;;12.20
24639;BMP180;1641;51.306;12.384;2024-02-21T11:04:42;100389.00;;;12.70
24639;BMP180;1641;51.306;12.384;2024-02-21T11:07:14;100346.00;;;12.50
24639;BMP180;1641;51.306;12.384;2024-02-21T11:09:53;100351.00;;;12.10
24639;BMP180;1641;51.306;12.384;2024-02-21T11:12:23;100378.00;;;12.10
24639;BMP180;1641;51.306;12.384;2024-02-21T11:14:48;100372.00;;;12.40
24639;BMP180;1641;51.306;12.384;2024-02-21T11:17:20;100351.00;;;12.20
24639;BMP180;1641;51.306;12.384;2024-02-21T11:19:50;100302.00;;;12.60
24639;BMP180;1641;51.306;12.384;2024-02-21T11:22:17;100294.00;;;13.10
24639;BMP180;1641;51.306;12.384;2024-02-21T11:24:42;100295.00;;;12.90
24639;BMP180;1641;51.306;12.384;2024-02-21T11:27:15;100338.00;;;12.60
24639;BMP180;1641;51.306;12.384;2024-02-21T11:32:16;100312.00;;;12.70
24639;BMP180;1641;51.306;12.384;2024-02-21T11:34:58;100310.00;;;13.10
24639;BMP180;1641;51.306;12.384;2024-02-21T11:37:27;100307.00;;;13.00
24639;BMP180;1641;51.306;12.384;2024-02-21T11:39:54;100297.00;;;12.70
24639;BMP180;1641;51.306;12.384;2024-02-21T11:42:20;100275.00;;;12.80
24639;BMP180;1641;51.306;12.384;2024-02-21T11:44:46;100240.00;;;12.80
24639;BMP180;1641;51.306;12.384;2024-02-21T11:47:17;100286.00;;;13.00
24639;BMP180;1641;51.306;12.384;2024-02-21T11:49:51;100276.00;;;12.60
24639;BMP180;1641;51.306;12.384;2024-02-21T11:52:25;100273.00;;;12.90
24639;BMP180;1641;51.306;12.384;2024-02-21T11:54:53;100240.00;;;13.20
24639;BMP180;1641;51.306;12.384;2024-02-21T11:57:31;100241.00;;;13.00
24639;BMP180;1641;51.306;12.384;2024-02-21T12:00:11;100266.00;;;13.20
24639;BMP180;1641;51.306;12.384;2024-02-21T12:02:37;100252.00;;;12.70
24639;BMP180;1641;51.306;12.384;2024-02-21T12:05:03;100213.00;;;12.80
24639;BMP180;1641;51.306;12.384;2024-02-21T12:07:30;100250.00;;;12.50
24639;BMP180;1641;51.306;12.384;2024-02-21T12:10:11;100255.00;;;12.90
24639;BMP180;1641;51.306;12.384;2024-02-21T12:12:52;100246.00;;;13.20
24639;BMP180;1641;51.306;12.384;2024-02-21T12:15:20;100239.00;;;13.20
24639;BMP180;1641;51.306;12.384;2024-02-21T12:17:45;100217.00;;;12.80
24639;BMP180;1641;51.306;12.384;2024-02-21T12:20:11;100222.00;;;13.00
24639;BMP180;1641;51.306;12.384;2024-02-21T12:22:41;100194.00;;;12.80
24639;BMP180;1641;51.306;12.384;2024-02-21T12:25:17;100221.00;;;13.20
24639;BMP180;1641;51.306;12.384;2024-02-21T12:27:47;100213.00;;;13.30
24639;BMP180;1641;51.306;12.384;2024-02-21T12:30:17;100214.00;;;13.70
24639;BMP180;1641;51.306;12.384;2024-02-21T12:32:52;100163.00;;;13.40
24639;BMP180;1641;51.306;12.384;2024-02-21T12:35:17;100174.00;;;13.40
24639;BMP180;1641;51.306;12.384;2024-02-21T12:37:55;100199.00;;;13.70
24639;BMP180;1641;51.306;12.384;2024-02-21T12:40:20;100189.00;;;13.80
24639;BMP180;1641;51.306;12.384;2024-02-21T12:42:45;100196.00;;;13.50
24639;BMP180;1641;51.306;12.384;2024-02-21T12:45:13;100154.00;;;13.90
24639;BMP180;1641;51.306;12.384;2024-02-21T12:47:42;100147.00;;;13.40
24639;BMP180;1641;51.306;12.384;2024-02-21T12:50:07;100136.00;;;13.60
24639;BMP180;1641;51.306;12.384;2024-02-21T12:52:32;100168.00;;;13.70
24639;BMP180;1641;51.306;12.384;2024-02-21T12:55:00;100171.00;;;13.70
24639;BMP180;1641;51.306;12.384;2024-02-21T12:57:32;100137.00;;;13.70
24639;BMP180;1641;51.306;12.384;2024-02-21T13:00:00;100113.00;;;13.80
24639;BMP180;1641;51.306;12.384;2024-02-21T13:02:25;100108.00;;;14.10
24639;BMP180;1641;51.306;12.384;2024-02-21T13:04:54;100128.00;;;14.20
24639;BMP180;1641;51.306;12.384;2024-02-21T13:07:19;100124.00;;;14.10
24639;BMP180;1641;51.306;12.384;2024-02-21T13:09:47;100122.00;;;13.90
24639;BMP180;1641;51.306;12.384;2024-02-21T13:12:13;100096.00;;;13.70
24639;BMP180;1641;51.306;12.384;2024-02-21T13:14:38;100108.00;;;14.00
24639;BMP180;1641;51.306;12.384;2024-02-21T13:17:16;100095.00;;;13.80
24639;BMP180;1641;51.306;12.384;2024-02-21T13:19:48;100094.00;;;13.90
24639;BMP180;1641;51.306;12.384;2024-02-21T13:22:13;100086.00;;;13.90
24639;BMP180;1641;51.306;12.384;2024-02-21T13:24:45;100082.00;;;13.50
24639;BMP180;1641;51.306;12.384;2024-02-21T13:27:10;100085.00;;;13.70
24639;BMP180;1641;51.306;12.384;2024-02-21T13:29:35;100040.00;;;13.60
24639;BMP180;1641;51.306;12.384;2024-02-21T13:32:01;100024.00;;;13.30
24639;BMP180;1641;51.306;12.384;2024-02-21T13:34:29;100020.00;;;13.60
24639;BMP180;1641;51.306;12.384;2024-02-21T13:37:04;100058.00;;;13.80
24639;BMP180;1641;51.306;12.384;2024-02-21T13:39:32;100027.00;;;13.90
24639;BMP180;1641;51.306;12.384;2024-02-21T13:42:02;100019.00;;;14.00
24639;BMP180;1641;51.306;12.384;2024-02-21T13:44:31;100058.00;;;14.00
24639;BMP180;1641;51.306;12.384;2024-02-21T13:46:56;100053.00;;;14.10
24639;BMP180;1641;51.306;12.384;2024-02-21T13:49:22;100053.00;;;14.10
24639;BMP180;1641;51.306;12.384;2024-02-21T13:51:47;100016.00;;;14.20
24639;BMP180;1641;51.306;12.384;2024-02-21T13:54:12;100039.00;;;14.20
24639;BMP180;1641;51.306;12.384;2024-02-21T13:56:42;100042.00;;;14.00
24639;BMP180;1641;51.306;12.384;2024-02-21T13:59:07;100051.00;;;14.10